KUCY/UCY METAR and TAF weather

Enter ICAO airport designator
Station Type Date Time Source
KUCY METAR 2019/08/18 08:55 UTC NOAA

KUCY 180855Z AUTO 00000KT 10SM CLR 20/20 A2990 RMK A01


Station Type Date Time Source
KUCY Decoded METAR 2019/08/18 08:55 UTC NOAA

Station name not available
Aug 18, 2019 - 04:55 AM EDT / 2019.08.18 0855 UTC
Wind: Calm:0
Visibility: 10 mile(s):0
Sky conditions: clear
Temperature: 68 F (20 C)
Dew Point: 68 F (20 C)
Relative Humidity: 100%
Pressure (altimeter): 29.9 in. Hg (1012 hPa)
ob: KUCY 180855Z AUTO 00000KT 10SM CLR 20/20 A2990 RMK A01
cycle: 9

Station Type Date Time Source
KUCY TAF UTC NOAA

Error!

Example: see airport list